Tucumcari Municipal Airport
KTCC : now visible

Airfield :











YOU CAN JOIN US ON...

 
LOGIN :

Register | Disclaimer

   EN    FR    IT 

 









Legend :    VFR   Marginal VFR   IFR   Intensive IFR   Very Intensive IFR
Visi :
Ceiling :
>= 8 km
>= 3000ft
5 to 8 km
1000 to 3000 ft
1500m to 5 km
500 to 1000 ft
800 to 1500m
200 to 500 ft
< 800m
< 200 ft
Symbols :   Thunderstorms  Fog  Heavy snow  Heavy precipitations  Wind > 20 kt







- Airport Elevation : 4065 ft


KTCC - Tucumcari Municipal

CURRENT METAR :
  • 181053Z AUTO 20009KT 10SM CLR 18/11 A3000 RMK AO2 SLP091 T01780106

EXPIRED METARs :
  • 180953Z AUTO 20005KT 10SM CLR 19/11 A3000 RMK AO2 SLP090 T01890106
  • 180853Z AUTO 25005KT 10SM CLR 20/11 A3000 RMK AO2 SLP088 T02000106 58001

TAF KTCC
Valid from the 18 at 12:00 until the 19 at 12:00 UTC


181120Z 1812/1912 24007KT P6SM SKC
FM181900 19011G18KT P6SM SCT100
FM190300 17010KT P6SM SCT100
No reported NOTAMs for that airfield.



MET'MAP, your aeronautical weather chart ! - Copyright ORBIFLY December 2007 - Disclaimer

ORBIFLY MET'MAP TEAM :

Programming & Development : Alexandra Zaïnal
Concept & Development : Baudouin d'Aumeries
Co-Development & Prog : Marc-Olivier Méhu
Technical & hardware support : Manuel Goepfert

Contact : metmap@orbifly.com




SOURCES & CREDITS :

   NOAA       Earth
Advisory